Marmaduke, Arkansas
Current Conditions -  °F | °C
As of 7:15 PM on Saturday 25 Oct 2014 (Local Time) from K4M9 Reporting Station
Clear Clear  
Wind Chill: 22°   Ceiling: Unl
Heat Index: 22°   Visibility: 8mi
Dew Point: 19°   Wind: 6mph
Humidity: 83%   Direction: 140°SE
Pressure: 30.01"   Gusts: NA
Location:  36.19°N, 90.38°W
Report Text: K4M9 260015Z AUTO 14005KT 8SM CLR 22/19 A3001 RMK AO2
Loading
Personal Weather Stations






























Interactive Weather Map
Tropical Storm Tracking
New forecast layout! Learn more

10-Day Weather Forecast

Advertisements
Track Severe Weather on mobile